Time;durP1;ratioP1;P1;durP2;ratioP2;P2;SDS_P1;SDS_P2;PMS_P1;PMS_P2;Temp;Humidity;BMP_temperature;BMP_pressure;BME280_temperature;BME280_humidity;BME280_pressure;Samples;Min_cycle;Max_cycle;Signal;HPM_P1;HPM_P2
2023/01/25 00:00:40;;;;;;;41.22;21.27;;;;;;;;;;5061243;28;20017;-61
2023/01/25 00:03:06;;;;;;;47.80;22.30;;;;;;;;;;5052882;28;20025;-62
2023/01/25 00:05:32;;;;;;;46.70;21.75;;;;;;;;;;5052406;28;20029;-61
2023/01/25 00:07:58;;;;;;;47.60;23.08;;;;;;;;;;5052371;28;20025;-61
2023/01/25 00:10:24;;;;;;;47.33;22.02;;;;;;;;;;5061871;28;20015;-61
2023/01/25 00:12:50;;;;;;;48.88;22.88;;;;;;;;;;5087965;28;20024;-61
2023/01/25 00:15:17;;;;;;;51.60;22.40;;;;;;;;;;5072565;28;20064;-61
2023/01/25 00:17:43;;;;;;;52.15;25.23;;;;;;;;;;5072411;28;20478;-61
2023/01/25 00:20:09;;;;;;;48.53;23.48;;;;;;;;;;5072459;28;20020;-61
2023/01/25 00:22:35;;;;;;;56.08;25.02;;;;;;;;;;5071887;28;20036;-62
2023/01/25 00:25:02;;;;;;;57.40;26.23;;;;;;;;;;5072433;28;20038;-61
2023/01/25 00:27:28;;;;;;;51.08;25.90;;;;;;;;;;5072278;28;20040;-61
2023/01/25 00:29:54;;;;;;;49.60;25.60;;;;;;;;;;5071130;28;20025;-61
2023/01/25 00:32:20;;;;;;;47.70;22.50;;;;;;;;;;5072103;28;20021;-62
2023/01/25 00:34:47;;;;;;;42.92;21.23;;;;;;;;;;5072267;28;20078;-61
2023/01/25 00:37:23;;;;;;;38.25;18.88;;;;;;;;;;5070617;28;20127;-61
2023/01/25 00:39:50;;;;;;;43.10;19.95;;;;;;;;;;5072311;28;20056;-62
2023/01/25 00:42:18;;;;;;;41.33;20.50;;;;;;;;;;5071999;28;20040;-61
2023/01/25 00:44:44;;;;;;;40.90;20.05;;;;;;;;;;5071006;28;20032;-62
2023/01/25 00:47:11;;;;;;;38.97;20.98;;;;;;;;;;5072477;28;20025;-62
2023/01/25 00:49:38;;;;;;;44.08;21.17;;;;;;;;;;5071553;28;20505;-61
2023/01/25 00:52:04;;;;;;;42.35;20.88;;;;;;;;;;5070676;28;20024;-62
2023/01/25 00:54:31;;;;;;;44.97;22.60;;;;;;;;;;5070446;28;20489;-61
2023/01/25 00:56:57;;;;;;;39.72;21.30;;;;;;;;;;5053852;28;20104;-61
2023/01/25 00:59:23;;;;;;;46.03;21.88;;;;;;;;;;5071491;28;20028;-61
2023/01/25 01:01:50;;;;;;;52.50;23.13;;;;;;;;;;5070614;28;20078;-61
2023/01/25 01:04:17;;;;;;;44.63;22.98;;;;;;;;;;5070388;28;20047;-61
2023/01/25 01:06:43;;;;;;;44.72;22.90;;;;;;;;;;5070396;28;20033;-61
2023/01/25 01:09:14;;;;;;;42.20;22.27;;;;;;;;;;5072038;28;20028;-61
2023/01/25 01:11:40;;;;;;;44.00;23.08;;;;;;;;;;5071715;28;20402;-61
2023/01/25 01:14:06;;;;;;;40.30;21.08;;;;;;;;;;5071637;28;20032;-61
2023/01/25 01:16:32;;;;;;;42.33;21.83;;;;;;;;;;5071874;28;20051;-61
2023/01/25 01:18:59;;;;;;;46.53;21.38;;;;;;;;;;5070246;28;20028;-61
2023/01/25 01:21:25;;;;;;;47.08;23.38;;;;;;;;;;5071585;28;20497;-61
2023/01/25 01:23:51;;;;;;;46.03;22.95;;;;;;;;;;5071756;28;20021;-61
2023/01/25 01:26:20;;;;;;;45.03;23.20;;;;;;;;;;5071713;28;20143;-61
2023/01/25 01:28:47;;;;;;;48.72;23.70;;;;;;;;;;5071597;28;20394;-61
2023/01/25 01:31:15;;;;;;;52.70;24.60;;;;;;;;;;5070458;28;20045;-61
2023/01/25 01:33:54;;;;;;;48.55;24.25;;;;;;;;;;5069932;28;20379;-61
2023/01/25 01:36:22;;;;;;;53.60;23.95;;;;;;;;;;5070168;28;20041;-61
2023/01/25 01:38:48;;;;;;;51.67;24.40;;;;;;;;;;5071250;28;20114;-61
2023/01/25 01:41:15;;;;;;;51.38;25.33;;;;;;;;;;5071719;28;20501;-61
2023/01/25 01:43:42;;;;;;;52.22;23.27;;;;;;;;;;5069427;28;20033;-62
2023/01/25 01:46:15;;;;;;;44.33;21.73;;;;;;;;;;5070324;28;20565;-61
2023/01/25 01:48:44;;;;;;;43.97;22.05;;;;;;;;;;5069703;28;20036;-61
2023/01/25 01:51:14;;;;;;;44.97;21.75;;;;;;;;;;5071523;28;20028;-61
2023/01/25 01:53:42;;;;;;;49.72;22.77;;;;;;;;;;5103795;28;20020;-61
2023/01/25 01:56:10;;;;;;;46.67;23.58;;;;;;;;;;5070254;28;20024;-61
2023/01/25 01:58:37;;;;;;;50.85;23.05;;;;;;;;;;5070095;28;20401;-61
2023/01/25 02:01:03;;;;;;;45.70;22.77;;;;;;;;;;5071408;28;20031;-61
2023/01/25 02:03:30;;;;;;;46.78;23.13;;;;;;;;;;5069836;28;20041;-61
2023/01/25 02:06:01;;;;;;;46.35;22.35;;;;;;;;;;5071318;28;20028;-61
2023/01/25 02:08:29;;;;;;;51.70;22.30;;;;;;;;;;5070179;28;20039;-61
2023/01/25 02:10:58;;;;;;;49.75;24.02;;;;;;;;;;5073677;28;20166;-62
2023/01/25 02:13:24;;;;;;;55.38;24.70;;;;;;;;;;5073427;28;20028;-61
2023/01/25 02:15:51;;;;;;;44.88;22.40;;;;;;;;;;5074796;28;20432;-61
2023/01/25 02:18:18;;;;;;;42.97;22.98;;;;;;;;;;5074447;28;20078;-61
2023/01/25 02:20:45;;;;;;;49.38;23.30;;;;;;;;;;5073161;28;20443;-61
2023/01/25 02:23:12;;;;;;;48.53;22.33;;;;;;;;;;5074842;28;20027;-61
2023/01/25 02:25:40;;;;;;;51.08;23.45;;;;;;;;;;5074343;28;20028;-61
2023/01/25 02:28:13;;;;;;;51.92;24.60;;;;;;;;;;5074731;28;20123;-61
2023/01/25 02:30:40;;;;;;;47.80;24.40;;;;;;;;;;5072133;28;20037;-61
2023/01/25 02:33:07;;;;;;;50.63;26.00;;;;;;;;;;5088544;28;20024;-61
2023/01/25 02:35:41;;;;;;;57.13;24.05;;;;;;;;;;5093126;28;20063;-61
2023/01/25 02:38:09;;;;;;;49.70;25.10;;;;;;;;;;5094725;28;20077;-61
2023/01/25 02:40:40;;;;;;;45.83;23.35;;;;;;;;;;5088096;28;20016;-61
2023/01/25 02:43:07;;;;;;;47.13;24.33;;;;;;;;;;5084683;28;20032;-61
2023/01/25 02:45:33;;;;;;;54.90;24.80;;;;;;;;;;5092737;28;20562;-61
2023/01/25 02:48:00;;;;;;;46.53;24.10;;;;;;;;;;5093102;28;20035;-61
2023/01/25 02:50:26;;;;;;;45.92;23.33;;;;;;;;;;5093242;28;20031;-61
2023/01/25 02:52:52;;;;;;;41.50;22.05;;;;;;;;;;5094028;28;20116;-62
2023/01/25 02:55:19;;;;;;;48.70;25.23;;;;;;;;;;5093117;28;20017;-61
2023/01/25 02:57:46;;;;;;;54.72;25.13;;;;;;;;;;5092822;28;20566;-61
2023/01/25 03:00:14;;;;;;;59.35;27.17;;;;;;;;;;5092554;28;20406;-61
2023/01/25 03:02:40;;;;;;;55.88;26.50;;;;;;;;;;5092782;28;20497;-61
2023/01/25 03:05:06;;;;;;;52.10;23.00;;;;;;;;;;5092843;28;20024;-61
2023/01/25 03:07:33;;;;;;;46.45;24.15;;;;;;;;;;5093999;28;20489;-61
2023/01/25 03:09:59;;;;;;;61.78;26.88;;;;;;;;;;5092652;28;20424;-61
2023/01/25 03:12:25;;;;;;;51.53;24.77;;;;;;;;;;5091477;28;20077;-61
2023/01/25 03:14:53;;;;;;;50.58;24.38;;;;;;;;;;5072013;28;20116;-61
2023/01/25 03:17:19;;;;;;;55.70;25.10;;;;;;;;;;5072280;28;20012;-61
2023/01/25 03:19:45;;;;;;;49.10;25.23;;;;;;;;;;5072230;28;20434;-62
2023/01/25 03:22:12;;;;;;;54.88;26.35;;;;;;;;;;5071605;28;20032;-61
2023/01/25 03:24:38;;;;;;;53.50;26.27;;;;;;;;;;5073462;28;20028;-62
2023/01/25 03:27:17;;;;;;;51.85;27.35;;;;;;;;;;5072135;28;20024;-61
2023/01/25 03:29:50;;;;;;;68.03;29.17;;;;;;;;;;5071719;28;20074;-62
2023/01/25 03:32:20;;;;;;;60.40;27.98;;;;;;;;;;5072001;28;20039;-61
2023/01/25 03:34:47;;;;;;;63.08;29.20;;;;;;;;;;5071896;28;20020;-61
2023/01/25 03:37:15;;;;;;;54.13;27.17;;;;;;;;;;5071863;28;20079;-61
2023/01/25 03:39:42;;;;;;;50.25;24.25;;;;;;;;;;5071802;28;20119;-61
2023/01/25 03:42:08;;;;;;;49.53;24.95;;;;;;;;;;5071865;28;20036;-61
2023/01/25 03:44:35;;;;;;;55.25;26.63;;;;;;;;;;5072718;28;20025;-61
2023/01/25 03:47:03;;;;;;;56.72;26.20;;;;;;;;;;5072923;28;20045;-61
2023/01/25 03:49:29;;;;;;;60.15;26.92;;;;;;;;;;5071774;28;20488;-61
2023/01/25 03:51:56;;;;;;;57.75;27.27;;;;;;;;;;5071594;28;20024;-61
2023/01/25 03:54:29;;;;;;;48.72;25.85;;;;;;;;;;5071767;28;20479;-61
2023/01/25 03:56:56;;;;;;;51.03;24.92;;;;;;;;;;5071358;28;20032;-61
2023/01/25 03:59:24;;;;;;;46.38;22.15;;;;;;;;;;5072525;28;20016;-61
2023/01/25 04:01:51;;;;;;;44.60;21.63;;;;;;;;;;5071276;28;20024;-61
2023/01/25 04:04:18;;;;;;;45.13;22.95;;;;;;;;;;5071585;28;20486;-61
2023/01/25 04:06:45;;;;;;;45.95;22.48;;;;;;;;;;5071279;28;20639;-61
2023/01/25 04:09:13;;;;;;;46.80;23.67;;;;;;;;;;5072829;28;20025;-61
2023/01/25 04:11:44;;;;;;;46.20;22.53;;;;;;;;;;5071299;28;20089;-61
2023/01/25 04:14:12;;;;;;;45.13;22.23;;;;;;;;;;5071014;28;20101;-61
2023/01/25 04:16:55;;;;;;;44.25;23.73;;;;;;;;;;5071029;28;20386;-61
2023/01/25 04:19:32;;;;;;;44.10;21.90;;;;;;;;;;5071299;28;20032;-61
2023/01/25 04:22:00;;;;;;;47.03;23.15;;;;;;;;;;5073312;28;20028;-61
2023/01/25 04:24:32;;;;;;;46.28;23.80;;;;;;;;;;5082475;28;20024;-62
2023/01/25 04:26:58;;;;;;;45.90;22.70;;;;;;;;;;5066849;28;20029;-61
2023/01/25 04:29:26;;;;;;;38.60;21.23;;;;;;;;;;5058152;28;20033;-61
2023/01/25 04:31:54;;;;;;;42.33;20.92;;;;;;;;;;5059567;28;20119;-61
2023/01/25 04:34:23;;;;;;;47.08;21.52;;;;;;;;;;5062414;28;20024;-61
2023/01/25 04:36:49;;;;;;;43.42;22.20;;;;;;;;;;5097219;28;20076;-61
2023/01/25 04:39:16;;;;;;;44.92;24.10;;;;;;;;;;5057547;28;20039;-61
2023/01/25 04:41:42;;;;;;;46.90;23.75;;;;;;;;;;5073057;28;20540;-61
2023/01/25 04:44:08;;;;;;;43.22;21.83;;;;;;;;;;5070618;28;20020;-61
2023/01/25 04:46:35;;;;;;;49.55;24.25;;;;;;;;;;5070185;28;20025;-61
2023/01/25 04:49:02;;;;;;;53.50;25.67;;;;;;;;;;5070490;28;20028;-61
2023/01/25 04:51:28;;;;;;;52.15;25.42;;;;;;;;;;5071002;28;20051;-61
2023/01/25 04:53:54;;;;;;;44.60;23.50;;;;;;;;;;5069937;28;20094;-61
2023/01/25 04:56:20;;;;;;;50.67;25.05;;;;;;;;;;5074470;28;20486;-61
2023/01/25 04:58:51;;;;;;;54.03;26.98;;;;;;;;;;5070610;28;20402;-61
2023/01/25 05:01:18;;;;;;;53.42;27.45;;;;;;;;;;5070863;28;20029;-61
2023/01/25 05:03:44;;;;;;;50.80;24.85;;;;;;;;;;5069291;28;20032;-62
2023/01/25 05:06:23;;;;;;;48.67;23.52;;;;;;;;;;5069373;28;20028;-61
2023/01/25 05:08:49;;;;;;;49.28;25.08;;;;;;;;;;5067026;28;20100;-62
2023/01/25 05:11:15;;;;;;;50.65;24.63;;;;;;;;;;5070177;28;20031;-62
2023/01/25 05:14:13;;;;;;;50.10;24.95;;;;;;;;;;5020463;28;20044;-62
2023/01/25 05:16:44;;;;;;;48.92;24.83;;;;;;;;;;5063461;28;20091;-62
2023/01/25 05:19:10;;;;;;;46.45;24.65;;;;;;;;;;5069718;28;20044;-61
2023/01/25 05:21:58;;;;;;;52.00;24.70;;;;;;;;;;5070050;28;20115;-61
2023/01/25 05:24:28;;;;;;;49.38;23.20;;;;;;;;;;5070676;28;20020;-61
2023/01/25 05:27:00;;;;;;;53.75;25.23;;;;;;;;;;5079263;28;20028;-61
2023/01/25 05:29:39;;;;;;;47.45;22.60;;;;;;;;;;5074419;28;20066;-61
2023/01/25 05:32:09;;;;;;;43.20;22.70;;;;;;;;;;5089969;28;20031;-61
2023/01/25 05:34:35;;;;;;;53.95;24.40;;;;;;;;;;5090771;28;20388;-61
2023/01/25 05:37:02;;;;;;;59.08;28.13;;;;;;;;;;5081849;28;20055;-61
2023/01/25 05:39:29;;;;;;;53.28;26.60;;;;;;;;;;5060631;28;20081;-61
2023/01/25 05:41:55;;;;;;;52.13;26.38;;;;;;;;;;5085329;28;20035;-61
2023/01/25 05:44:22;;;;;;;53.72;27.75;;;;;;;;;;5080305;28;20028;-61
2023/01/25 05:46:50;;;;;;;59.13;29.27;;;;;;;;;;5074263;28;20025;-61
2023/01/25 05:49:17;;;;;;;56.08;27.42;;;;;;;;;;5060999;28;20041;-61
2023/01/25 05:51:43;;;;;;;55.67;27.00;;;;;;;;;;5077642;28;20116;-61
2023/01/25 05:54:12;;;;;;;56.92;27.40;;;;;;;;;;5067686;28;20029;-61
2023/01/25 05:56:39;;;;;;;55.90;27.02;;;;;;;;;;5077400;28;21229;-61
2023/01/25 05:59:07;;;;;;;62.90;28.67;;;;;;;;;;5081843;28;20017;-61
2023/01/25 06:01:33;;;;;;;56.58;28.52;;;;;;;;;;5088074;28;20558;-61
2023/01/25 06:03:59;;;;;;;62.17;27.98;;;;;;;;;;5074834;28;20025;-61
2023/01/25 06:06:25;;;;;;;59.47;28.98;;;;;;;;;;5078143;28;20053;-61
2023/01/25 06:08:52;;;;;;;61.80;29.92;;;;;;;;;;5077230;28;20027;-61
2023/01/25 06:11:20;;;;;;;59.92;27.85;;;;;;;;;;5070259;28;20078;-61
2023/01/25 06:13:46;;;;;;;64.25;28.90;;;;;;;;;;5070043;28;20051;-61
2023/01/25 06:16:13;;;;;;;59.40;28.70;;;;;;;;;;5072105;28;20013;-61
2023/01/25 06:18:42;;;;;;;60.13;28.27;;;;;;;;;;5067419;28;20090;-62
2023/01/25 06:21:11;;;;;;;56.50;27.40;;;;;;;;;;5072725;28;20083;-62
2023/01/25 06:23:38;;;;;;;53.72;27.27;;;;;;;;;;5074429;28;20379;-62
2023/01/25 06:26:08;;;;;;;58.97;27.83;;;;;;;;;;5080756;28;20048;-62
2023/01/25 06:28:35;;;;;;;59.75;27.35;;;;;;;;;;5080803;28;20087;-62
2023/01/25 06:31:08;;;;;;;57.40;27.00;;;;;;;;;;5076130;28;20541;-62
2023/01/25 06:33:35;;;;;;;58.38;27.67;;;;;;;;;;5074231;28;20032;-62
2023/01/25 06:36:03;;;;;;;60.25;27.88;;;;;;;;;;5074883;28;20098;-62
2023/01/25 06:38:30;;;;;;;56.53;27.52;;;;;;;;;;5082540;28;20366;-62
2023/01/25 06:41:00;;;;;;;56.10;26.17;;;;;;;;;;5083020;28;20020;-63
2023/01/25 06:43:26;;;;;;;58.85;26.45;;;;;;;;;;5082026;28;20082;-62
2023/01/25 06:45:52;;;;;;;53.53;25.65;;;;;;;;;;5084121;28;20016;-62
2023/01/25 06:48:19;;;;;;;65.53;30.92;;;;;;;;;;5074097;28;20036;-62
2023/01/25 06:50:45;;;;;;;73.47;33.67;;;;;;;;;;5074026;28;20066;-62
2023/01/25 06:53:11;;;;;;;74.22;35.10;;;;;;;;;;5071042;28;20132;-62
2023/01/25 06:55:37;;;;;;;70.97;34.08;;;;;;;;;;5074593;28;20013;-62
2023/01/25 06:58:03;;;;;;;62.30;30.25;;;;;;;;;;5072790;28;20025;-62
2023/01/25 07:00:29;;;;;;;57.17;28.52;;;;;;;;;;5074397;28;20363;-62
2023/01/25 07:02:55;;;;;;;64.13;31.45;;;;;;;;;;5072672;28;20036;-62
2023/01/25 07:05:22;;;;;;;62.17;28.92;;;;;;;;;;5086055;28;20020;-62
2023/01/25 07:07:49;;;;;;;59.72;26.42;;;;;;;;;;5069907;28;20036;-62
2023/01/25 07:10:15;;;;;;;59.15;27.42;;;;;;;;;;5063313;28;20031;-62
2023/01/25 07:12:41;;;;;;;61.85;31.52;;;;;;;;;;5066816;28;20108;-62
2023/01/25 07:15:07;;;;;;;66.43;32.08;;;;;;;;;;5073781;28;20042;-62
2023/01/25 07:17:33;;;;;;;64.85;29.70;;;;;;;;;;5069662;28;20033;-62
2023/01/25 07:19:59;;;;;;;65.38;30.92;;;;;;;;;;5086197;28;20055;-62
2023/01/25 07:22:26;;;;;;;66.22;29.95;;;;;;;;;;5068103;28;20112;-62
2023/01/25 07:24:52;;;;;;;68.82;31.80;;;;;;;;;;5070706;28;20024;-62
2023/01/25 07:27:18;;;;;;;66.80;31.70;;;;;;;;;;5072092;28;20422;-62
2023/01/25 07:29:45;;;;;;;62.88;30.13;;;;;;;;;;5068970;28;20012;-62
2023/01/25 07:32:13;;;;;;;62.25;29.55;;;;;;;;;;5071173;28;20099;-62
2023/01/25 07:34:39;;;;;;;60.33;28.80;;;;;;;;;;5070430;28;20019;-62
2023/01/25 07:37:05;;;;;;;65.28;28.92;;;;;;;;;;5069926;28;20040;-62
2023/01/25 07:39:31;;;;;;;56.67;28.15;;;;;;;;;;5068991;28;20475;-62
2023/01/25 07:41:57;;;;;;;65.35;32.67;;;;;;;;;;5069351;28;20020;-62
2023/01/25 07:44:29;;;;;;;70.47;34.17;;;;;;;;;;5067962;28;20020;-62
2023/01/25 07:47:07;;;;;;;61.92;31.70;;;;;;;;;;5062679;28;20040;-62
2023/01/25 07:49:33;;;;;;;64.53;33.47;;;;;;;;;;5069526;28;20024;-62
2023/01/25 07:51:59;;;;;;;66.38;31.63;;;;;;;;;;5070156;28;20103;-62
2023/01/25 07:54:26;;;;;;;65.72;31.35;;;;;;;;;;5068891;28;20067;-62
2023/01/25 07:56:52;;;;;;;65.90;30.95;;;;;;;;;;5063949;28;20028;-62
2023/01/25 07:59:18;;;;;;;64.50;30.83;;;;;;;;;;5055004;28;20035;-62
2023/01/25 08:01:44;;;;;;;59.88;31.67;;;;;;;;;;5066391;28;20035;-62
2023/01/25 08:04:10;;;;;;;64.03;31.17;;;;;;;;;;5056543;28;20028;-62
2023/01/25 08:06:40;;;;;;;66.45;30.23;;;;;;;;;;5062607;28;20051;-62
2023/01/25 08:09:14;;;;;;;62.30;29.58;;;;;;;;;;5062004;28;20036;-62
2023/01/25 08:11:41;;;;;;;61.75;30.48;;;;;;;;;;5059992;28;20032;-62
2023/01/25 08:14:07;;;;;;;70.82;32.28;;;;;;;;;;5061306;28;20095;-62
2023/01/25 08:16:34;;;;;;;66.40;32.00;;;;;;;;;;5062705;28;20028;-62
2023/01/25 08:19:02;;;;;;;66.47;32.00;;;;;;;;;;5061416;28;20028;-62
2023/01/25 08:21:28;;;;;;;55.13;26.55;;;;;;;;;;5058018;28;20024;-62
2023/01/25 08:23:56;;;;;;;63.30;28.50;;;;;;;;;;5061463;28;20158;-62
2023/01/25 08:26:22;;;;;;;39.92;20.73;;;;;;;;;;5062123;28;20486;-62
2023/01/25 08:28:51;;;;;;;36.13;18.75;;;;;;;;;;5062380;28;20020;-62
2023/01/25 08:31:19;;;;;;;20.38;11.70;;;;;;;;;;5059886;28;20101;-62
2023/01/25 08:33:45;;;;;;;24.58;11.70;;;;;;;;;;5061702;28;20029;-62
2023/01/25 08:36:12;;;;;;;25.92;11.57;;;;;;;;;;5061659;28;20036;-62
2023/01/25 08:38:38;;;;;;;20.48;11.02;;;;;;;;;;5058130;28;20037;-62
2023/01/25 08:41:06;;;;;;;24.50;13.30;;;;;;;;;;5063965;28;20032;-62
2023/01/25 08:43:32;;;;;;;29.33;14.43;;;;;;;;;;5060474;28;20021;-62
2023/01/25 08:45:58;;;;;;;34.13;17.25;;;;;;;;;;5063230;28;20116;-62
2023/01/25 08:48:24;;;;;;;31.55;15.80;;;;;;;;;;5061019;28;20052;-62
2023/01/25 08:50:51;;;;;;;27.58;15.70;;;;;;;;;;5062533;28;20025;-62
2023/01/25 08:53:17;;;;;;;25.45;15.43;;;;;;;;;;5064744;28;20035;-62
2023/01/25 08:55:44;;;;;;;32.40;15.68;;;;;;;;;;5062330;28;20020;-62
2023/01/25 08:58:11;;;;;;;27.95;16.70;;;;;;;;;;5059492;28;20025;-62
2023/01/25 09:00:41;;;;;;;29.90;16.15;;;;;;;;;;5061890;28;20115;-62
2023/01/25 09:03:07;;;;;;;29.20;15.75;;;;;;;;;;5061080;28;20124;-62
2023/01/25 09:05:37;;;;;;;19.88;11.02;;;;;;;;;;5058820;28;20036;-62
2023/01/25 09:08:04;;;;;;;19.40;12.77;;;;;;;;;;5060019;28;20123;-62
2023/01/25 09:10:31;;;;;;;22.63;14.20;;;;;;;;;;5062292;28;20032;-62
2023/01/25 09:12:57;;;;;;;26.85;13.85;;;;;;;;;;5060016;28;20025;-62
2023/01/25 09:15:23;;;;;;;19.50;12.07;;;;;;;;;;5059740;28;20490;-62
2023/01/25 09:17:53;;;;;;;14.38;9.18;;;;;;;;;;5057527;28;20039;-62
2023/01/25 09:20:19;;;;;;;18.10;9.00;;;;;;;;;;5061573;28;20048;-62
2023/01/25 09:22:46;;;;;;;13.68;8.57;;;;;;;;;;5063958;28;20029;-62
2023/01/25 09:25:12;;;;;;;12.68;7.78;;;;;;;;;;5065342;28;20032;-62
2023/01/25 09:27:38;;;;;;;19.52;6.25;;;;;;;;;;5063402;28;20028;-62
2023/01/25 09:30:05;;;;;;;9.43;6.03;;;;;;;;;;5064259;28;20048;-62
2023/01/25 09:32:32;;;;;;;9.75;6.30;;;;;;;;;;5060668;28;20036;-62
2023/01/25 09:34:58;;;;;;;15.63;7.85;;;;;;;;;;5064632;28;20029;-62
2023/01/25 09:37:24;;;;;;;15.85;9.55;;;;;;;;;;5065297;28;20047;-62
2023/01/25 09:39:50;;;;;;;16.30;9.73;;;;;;;;;;5063388;28;20025;-62
2023/01/25 09:42:21;;;;;;;20.40;11.60;;;;;;;;;;5065219;28;22670;-62
2023/01/25 09:44:48;;;;;;;20.88;12.50;;;;;;;;;;5063670;28;20108;-62
2023/01/25 09:47:26;;;;;;;21.70;12.05;;;;;;;;;;5064962;28;20031;-62
2023/01/25 09:50:11;;;;;;;12.63;8.88;;;;;;;;;;5063851;28;20025;-62
2023/01/25 09:52:46;;;;;;;10.23;6.85;;;;;;;;;;5064707;28;20028;-62
2023/01/25 09:55:18;;;;;;;11.05;6.13;;;;;;;;;;5060888;28;20032;-62
2023/01/25 09:57:47;;;;;;;13.52;6.35;;;;;;;;;;5060442;28;20596;-62
2023/01/25 10:00:19;;;;;;;8.48;6.28;;;;;;;;;;5064842;28;20013;-62
2023/01/25 10:02:51;;;;;;;9.13;6.07;;;;;;;;;;5063203;28;20039;-62
2023/01/25 10:05:22;;;;;;;9.18;6.38;;;;;;;;;;5063477;28;20037;-62
2023/01/25 10:07:54;;;;;;;15.02;6.90;;;;;;;;;;5064649;28;20031;-62
2023/01/25 10:10:24;;;;;;;12.95;8.65;;;;;;;;;;5063133;28;20098;-62
2023/01/25 10:12:50;;;;;;;12.75;9.15;;;;;;;;;;5066047;28;20509;-62
2023/01/25 10:15:21;;;;;;;12.13;8.02;;;;;;;;;;5063722;28;20020;-62
2023/01/25 10:17:57;;;;;;;9.63;7.28;;;;;;;;;;5063664;28;20082;-62
2023/01/25 10:20:26;;;;;;;19.58;11.30;;;;;;;;;;5061610;28;20555;-62
2023/01/25 10:22:52;;;;;;;14.80;9.88;;;;;;;;;;5064293;28;20128;-62
2023/01/25 10:25:22;;;;;;;12.38;8.98;;;;;;;;;;5064371;28;20040;-62
2023/01/25 10:28:07;;;;;;;16.60;11.43;;;;;;;;;;5061640;28;20127;-62
2023/01/25 10:30:47;;;;;;;15.52;10.68;;;;;;;;;;5063806;28;20035;-62
2023/01/25 10:33:15;;;;;;;18.52;11.95;;;;;;;;;;5064854;28;20375;-62
2023/01/25 10:35:44;;;;;;;14.32;9.30;;;;;;;;;;5064062;28;20037;-62
2023/01/25 10:38:15;;;;;;;18.58;12.20;;;;;;;;;;5057413;28;20091;-62
2023/01/25 10:40:45;;;;;;;17.55;11.52;;;;;;;;;;5059909;28;20029;-62
2023/01/25 10:43:15;;;;;;;17.58;10.70;;;;;;;;;;5055207;28;20033;-62
2023/01/25 10:45:43;;;;;;;15.02;10.95;;;;;;;;;;5060634;28;20391;-62
2023/01/25 10:48:13;;;;;;;12.32;8.45;;;;;;;;;;5059584;28;20039;-62
2023/01/25 10:50:45;;;;;;;14.38;8.25;;;;;;;;;;5057246;28;20024;-62
2023/01/25 10:53:22;;;;;;;12.87;7.67;;;;;;;;;;5055220;28;20043;-62
2023/01/25 10:55:59;;;;;;;13.05;8.65;;;;;;;;;;5055970;28;20024;-62
2023/01/25 10:58:29;;;;;;;16.98;9.70;;;;;;;;;;5060814;28;20047;-62
2023/01/25 11:00:55;;;;;;;14.57;9.70;;;;;;;;;;5060749;28;21436;-62
2023/01/25 11:03:21;;;;;;;11.95;8.13;;;;;;;;;;5058130;28;20020;-62
2023/01/25 11:05:54;;;;;;;14.65;9.25;;;;;;;;;;5060595;28;20490;-62
2023/01/25 11:08:25;;;;;;;11.88;7.93;;;;;;;;;;5057035;28;20033;-62
2023/01/25 11:10:52;;;;;;;17.92;11.32;;;;;;;;;;5058436;28;20410;-62
2023/01/25 11:13:22;;;;;;;18.63;11.90;;;;;;;;;;5056314;28;20025;-62
2023/01/25 11:15:53;;;;;;;24.25;12.13;;;;;;;;;;5055705;28;20079;-62
2023/01/25 11:18:24;;;;;;;17.42;10.27;;;;;;;;;;5061468;28;20069;-62
2023/01/25 11:21:03;;;;;;;14.88;10.32;;;;;;;;;;5057436;28;20032;-62
2023/01/25 11:23:31;;;;;;;16.45;9.45;;;;;;;;;;5061910;28;20493;-62
2023/01/25 11:26:10;;;;;;;15.45;8.52;;;;;;;;;;5055661;28;22712;-62
2023/01/25 11:28:36;;;;;;;12.98;8.55;;;;;;;;;;5061746;28;20028;-62
2023/01/25 11:31:03;;;;;;;14.60;9.43;;;;;;;;;;5059363;28;20359;-62
2023/01/25 11:33:31;;;;;;;16.98;10.13;;;;;;;;;;5062250;28;20025;-62
2023/01/25 11:35:57;;;;;;;12.90;8.98;;;;;;;;;;5058553;28;20529;-62
2023/01/25 11:38:23;;;;;;;16.83;9.88;;;;;;;;;;5058249;28;20032;-62
2023/01/25 11:40:55;;;;;;;16.80;10.90;;;;;;;;;;5057679;28;20028;-62
2023/01/25 11:43:31;;;;;;;18.65;9.82;;;;;;;;;;5056997;28;20020;-62
2023/01/25 11:46:02;;;;;;;13.93;8.98;;;;;;;;;;5058026;28;20295;-62
2023/01/25 11:48:46;;;;;;;14.82;9.25;;;;;;;;;;5057917;28;20032;-62
2023/01/25 11:51:19;;;;;;;14.02;9.13;;;;;;;;;;5054860;28;20025;-62
2023/01/25 11:53:46;;;;;;;14.45;8.98;;;;;;;;;;5055621;28;20429;-62
2023/01/25 11:56:24;;;;;;;16.85;10.23;;;;;;;;;;5053005;28;20021;-62
2023/01/25 11:59:03;;;;;;;18.40;9.38;;;;;;;;;;5051403;28;20016;-62
2023/01/25 12:01:41;;;;;;;22.83;9.68;;;;;;;;;;5051550;28;20509;-62
2023/01/25 12:04:26;;;;;;;17.10;9.82;;;;;;;;;;5057242;28;20397;-62
2023/01/25 12:06:55;;;;;;;16.55;8.98;;;;;;;;;;5062535;28;20060;-62
2023/01/25 12:09:36;;;;;;;17.60;9.88;;;;;;;;;;5063799;28;20020;-62
2023/01/25 12:12:25;;;;;;;22.52;11.05;;;;;;;;;;5069051;28;20035;-62
2023/01/25 12:14:57;;;;;;;22.17;9.77;;;;;;;;;;5062311;28;20549;-62
2023/01/25 12:17:24;;;;;;;19.98;10.27;;;;;;;;;;5069987;28;20761;-62
2023/01/25 12:20:05;;;;;;;20.08;11.07;;;;;;;;;;5071997;28;20459;-62
2023/01/25 12:22:37;;;;;;;20.05;13.18;;;;;;;;;;5067378;28;20020;-62
2023/01/25 12:25:22;;;;;;;21.35;11.57;;;;;;;;;;5070349;28;20029;-62
2023/01/25 12:27:48;;;;;;;16.02;9.93;;;;;;;;;;5069613;28;20474;-62
2023/01/25 12:30:14;;;;;;;14.40;9.70;;;;;;;;;;5069720;28;20390;-62
2023/01/25 12:32:44;;;;;;;17.17;10.60;;;;;;;;;;5062031;28;20043;-62
2023/01/25 12:35:29;;;;;;;20.27;9.77;;;;;;;;;;5051298;28;20039;-62
2023/01/25 12:37:58;;;;;;;15.40;10.25;;;;;;;;;;5055340;28;20040;-62
2023/01/25 12:40:43;;;;;;;16.10;11.10;;;;;;;;;;5060325;28;20048;-62
2023/01/25 12:43:14;;;;;;;16.83;10.88;;;;;;;;;;5067298;28;20024;-62
2023/01/25 12:45:42;;;;;;;18.73;11.43;;;;;;;;;;5065007;28;20024;-62
2023/01/25 12:48:35;;;;;;;20.40;10.38;;;;;;;;;;5058081;28;20025;-62
2023/01/25 12:51:01;;;;;;;18.30;10.45;;;;;;;;;;5068431;28;20044;-62
2023/01/25 12:53:27;;;;;;;20.58;11.20;;;;;;;;;;5063579;28;20473;-62
2023/01/25 12:55:55;;;;;;;17.27;10.73;;;;;;;;;;5068631;28;20028;-62
2023/01/25 12:58:27;;;;;;;20.42;11.15;;;;;;;;;;5060209;28;20013;-62
2023/01/25 13:01:08;;;;;;;22.88;12.02;;;;;;;;;;5062932;28;20540;-62
2023/01/25 13:03:35;;;;;;;24.55;13.32;;;;;;;;;;5062784;28;20028;-62
2023/01/25 13:06:01;;;;;;;18.48;11.15;;;;;;;;;;5062150;28;20028;-62
2023/01/25 13:08:30;;;;;;;20.85;12.00;;;;;;;;;;5062551;28;20178;-62
2023/01/25 13:11:08;;;;;;;21.25;12.43;;;;;;;;;;5063308;28;20041;-62
2023/01/25 13:13:34;;;;;;;19.20;11.90;;;;;;;;;;5062140;28;20029;-62
2023/01/25 13:16:19;;;;;;;18.13;11.38;;;;;;;;;;5062801;28;20017;-62
2023/01/25 13:18:46;;;;;;;18.33;11.35;;;;;;;;;;5063435;28;20060;-62
2023/01/25 13:21:32;;;;;;;19.00;11.07;;;;;;;;;;5060064;28;20020;-62
2023/01/25 13:24:11;;;;;;;20.70;11.20;;;;;;;;;;5061697;28;20028;-62
2023/01/25 13:26:38;;;;;;;24.38;12.18;;;;;;;;;;5060157;28;20451;-62
2023/01/25 13:29:24;;;;;;;20.10;11.50;;;;;;;;;;5062330;28;20401;-62
2023/01/25 13:31:52;;;;;;;21.85;11.40;;;;;;;;;;5064196;28;20111;-62
2023/01/25 13:34:37;;;;;;;16.40;11.45;;;;;;;;;;5064648;28;20028;-62
2023/01/25 13:37:13;;;;;;;22.75;12.77;;;;;;;;;;5058906;28;20084;-62
2023/01/25 13:39:41;;;;;;;25.60;13.18;;;;;;;;;;5061786;28;20401;-62
2023/01/25 13:42:10;;;;;;;22.90;12.77;;;;;;;;;;5060030;28;20390;-62
2023/01/25 13:44:38;;;;;;;22.02;12.45;;;;;;;;;;5061202;28;20145;-62
2023/01/25 13:47:10;;;;;;;28.15;13.65;;;;;;;;;;5063859;28;20579;-62
2023/01/25 13:49:40;;;;;;;26.85;12.75;;;;;;;;;;5063579;28;20457;-62
2023/01/25 13:52:07;;;;;;;22.52;12.55;;;;;;;;;;5061902;28;20050;-62
2023/01/25 13:54:33;;;;;;;27.92;13.55;;;;;;;;;;5060485;28;20482;-62
2023/01/25 13:57:03;;;;;;;26.95;14.88;;;;;;;;;;5060380;28;20028;-62
2023/01/25 13:59:29;;;;;;;26.40;14.95;;;;;;;;;;5063183;28;20039;-62
2023/01/25 14:01:56;;;;;;;28.63;16.67;;;;;;;;;;5061798;28;20055;-62
2023/01/25 14:04:22;;;;;;;29.85;16.55;;;;;;;;;;5060043;28;20024;-62
2023/01/25 14:06:48;;;;;;;29.65;17.02;;;;;;;;;;5066486;28;20036;-62
2023/01/25 14:09:18;;;;;;;31.63;18.67;;;;;;;;;;5067321;28;20178;-62
2023/01/25 14:11:45;;;;;;;33.53;18.73;;;;;;;;;;5065794;28;20374;-62
2023/01/25 14:14:18;;;;;;;28.67;17.58;;;;;;;;;;5065948;28;20020;-62
2023/01/25 14:16:44;;;;;;;30.85;16.75;;;;;;;;;;5065344;28;20406;-62
2023/01/25 14:19:29;;;;;;;35.67;18.02;;;;;;;;;;5067847;28;20025;-62
2023/01/25 14:22:14;;;;;;;29.83;17.27;;;;;;;;;;5066389;28;20108;-62
2023/01/25 14:24:40;;;;;;;31.13;16.67;;;;;;;;;;5065172;28;20585;-62
2023/01/25 14:27:06;;;;;;;29.77;16.92;;;;;;;;;;5065421;28;20096;-62
2023/01/25 14:29:34;;;;;;;33.70;18.40;;;;;;;;;;5063006;28;20378;-62